PWSweather.com
Personal Weather Stations
Station Observations
PWSLORIS
The Farm At Fox Bay, Loris, SC 29569

The Farm At Fox BayLoris, SC 29569

Lat: 34.067097, Lon: -78.86907

Elevation: 108

Station Type: Davis Vantage Pro2 with 24 hr. FARS and solar

http://www.lorisweather.com

High Low Average
Temperature 74.5°F23.6°C 52.0°F11.1°C 62.9°F17.2°C
Dew Point 58.6°F14.8°C 48.0°F8.9°C 54.5°F12.5°C
Winds 8.1 mph 13.0 kmh Calm Calm 3.0 mph NE4.8 kmh NE
Wind Gusts 15.0 mph24.1 kmh -- 5.0 mph8.0 kmh
Humidity 93% 56% 75%
Pressure 30.29 in1025.7 mb 30.20 in1022.7 mb -
Precipitation 0.00 in0.0 mm - -
Hour Temp Dew Point Humidity Winds Wind Gusts Pressure Precip Precip Rate Daily Precip Total
12:00 AM 64.3°F17.9°C 53.5°F11.9°C 68% 2.3 mph NE3.7 kmh NE 4.6 mph7.4 kmh 30.21 in1023.0 mb - 0.00 in0.0 mm 0.00 in0.0 mm
12:15 AM 63.7°F17.6°C 52.9°F11.6°C 68% 4.6 mph ENE7.4 kmh ENE 6.9 mph11.1 kmh 30.22 in1023.4 mb - 0.00 in0.0 mm 0.00 in0.0 mm
12:30 AM 63.3°F17.4°C 53.0°F11.7°C 69% 3.5 mph NE5.6 kmh NE 4.6 mph7.4 kmh 30.22 in1023.4 mb - 0.00 in0.0 mm 0.00 in0.0 mm
12:45 AM 62.8°F17.1°C 52.5°F11.4°C 69% 2.3 mph ENE3.7 kmh ENE 3.5 mph5.6 kmh 30.22 in1023.4 mb - 0.00 in0.0 mm 0.00 in0.0 mm
01:00 AM 62.3°F16.8°C 52.4°F11.3°C 70% 4.6 mph E7.4 kmh E 9.2 mph14.8 kmh 30.23 in1023.7 mb - 0.00 in0.0 mm 0.00 in0.0 mm
01:15 AM 62.1°F16.7°C 51.8°F11.0°C 69% 5.8 mph E9.3 kmh E 8.1 mph13.0 kmh 30.23 in1023.7 mb - 0.00 in0.0 mm 0.00 in0.0 mm
01:30 AM 62.1°F16.7°C 51.8°F11.0°C 69% 3.5 mph NE5.6 kmh NE 9.2 mph14.8 kmh 30.23 in1023.7 mb - 0.00 in0.0 mm 0.00 in0.0 mm
01:45 AM 62.0°F16.7°C 51.7°F10.9°C 69% 8.1 mph ENE13.0 kmh ENE 15.0 mph24.1 kmh 30.23 in1023.7 mb - 0.00 in0.0 mm 0.00 in0.0 mm
02:00 AM 61.7°F16.5°C 51.8°F11.0°C 70% 5.8 mph ENE9.3 kmh ENE 9.2 mph14.8 kmh 30.24 in1024.0 mb - 0.00 in0.0 mm 0.00 in0.0 mm
02:15 AM 61.1°F16.2°C 51.7°F10.9°C 71% 4.6 mph ENE7.4 kmh ENE 11.5 mph18.5 kmh 30.24 in1024.0 mb - 0.00 in0.0 mm 0.00 in0.0 mm
02:30 AM 60.5°F15.8°C 51.8°F11.0°C 73% 2.3 mph E3.7 kmh E 5.8 mph9.3 kmh 30.24 in1024.0 mb - 0.00 in0.0 mm 0.00 in0.0 mm
02:45 AM 59.9°F15.5°C 51.6°F10.9°C 74% 3.5 mph NE5.6 kmh NE 3.5 mph5.6 kmh 30.24 in1024.0 mb - 0.00 in0.0 mm 0.00 in0.0 mm
03:00 AM 59.2°F15.1°C 51.7°F10.9°C 76% Calm Calm -- 30.24 in1024.0 mb - 0.00 in0.0 mm 0.00 in0.0 mm
03:15 AM 58.6°F14.8°C 51.4°F10.8°C 77% Calm Calm -- 30.24 in1024.0 mb - 0.00 in0.0 mm 0.00 in0.0 mm
03:30 AM 58.0°F14.4°C 51.2°F10.7°C 78% Calm Calm -- 30.24 in1024.0 mb - 0.00 in0.0 mm 0.00 in0.0 mm
03:45 AM 57.3°F14.1°C 50.8°F10.4°C 79% Calm Calm -- 30.24 in1024.0 mb - 0.00 in0.0 mm 0.00 in0.0 mm
04:00 AM 56.9°F13.8°C 50.8°F10.4°C 80% Calm Calm -- 30.24 in1024.0 mb - 0.00 in0.0 mm 0.00 in0.0 mm
04:15 AM 56.4°F13.6°C 50.3°F10.2°C 80% Calm Calm -- 30.24 in1024.0 mb - 0.00 in0.0 mm 0.00 in0.0 mm
04:30 AM 55.8°F13.2°C 50.1°F10.1°C 81% Calm Calm -- 30.23 in1023.7 mb - 0.00 in0.0 mm 0.00 in0.0 mm
04:45 AM 55.4°F13.0°C 50.0°F10.0°C 82% Calm Calm -- 30.23 in1023.7 mb - 0.00 in0.0 mm 0.00 in0.0 mm
05:00 AM 55.0°F12.8°C 49.6°F9.8°C 82% Calm Calm -- 30.23 in1023.7 mb - 0.00 in0.0 mm 0.00 in0.0 mm
05:15 AM 54.6°F12.6°C 49.2°F9.6°C 82% 2.3 mph N3.7 kmh N 3.5 mph5.6 kmh 30.23 in1023.7 mb - 0.00 in0.0 mm 0.00 in0.0 mm
05:30 AM 54.3°F12.4°C 49.2°F9.6°C 83% Calm Calm -- 30.23 in1023.7 mb - 0.00 in0.0 mm 0.00 in0.0 mm
05:45 AM 53.8°F12.1°C 48.8°F9.3°C 83% 1.2 mph NE1.9 kmh NE 2.3 mph3.7 kmh 30.24 in1024.0 mb - 0.00 in0.0 mm 0.00 in0.0 mm
06:00 AM 53.5°F11.9°C 48.5°F9.2°C 83% Calm Calm -- 30.24 in1024.0 mb - 0.00 in0.0 mm 0.00 in0.0 mm
06:15 AM 53.2°F11.8°C 48.5°F9.2°C 84% Calm Calm -- 30.23 in1023.7 mb - 0.00 in0.0 mm 0.00 in0.0 mm
06:30 AM 53.0°F11.7°C 48.3°F9.1°C 84% Calm Calm 1.2 mph1.9 kmh 30.23 in1023.7 mb - 0.00 in0.0 mm 0.00 in0.0 mm
06:45 AM 52.7°F11.5°C 48.3°F9.1°C 85% Calm Calm -- 30.23 in1023.7 mb - 0.00 in0.0 mm 0.00 in0.0 mm
07:00 AM 52.3°F11.3°C 48.2°F9.0°C 86% 1.2 mph NE1.9 kmh NE 3.5 mph5.6 kmh 30.23 in1023.7 mb - 0.00 in0.0 mm 0.00 in0.0 mm
07:15 AM 52.1°F11.2°C 48.0°F8.9°C 86% 2.3 mph NNE3.7 kmh NNE 3.5 mph5.6 kmh 30.24 in1024.0 mb - 0.00 in0.0 mm 0.00 in0.0 mm
07:30 AM 52.0°F11.1°C 48.3°F9.1°C 87% 1.2 mph N1.9 kmh N 3.5 mph5.6 kmh 30.24 in1024.0 mb - 0.00 in0.0 mm 0.00 in0.0 mm
07:45 AM 52.3°F11.3°C 48.5°F9.2°C 87% 1.2 mph NE1.9 kmh NE 2.3 mph3.7 kmh 30.24 in1024.0 mb - 0.00 in0.0 mm 0.00 in0.0 mm
08:00 AM 53.0°F11.7°C 49.2°F9.6°C 87% 1.2 mph NE1.9 kmh NE 2.3 mph3.7 kmh 30.24 in1024.0 mb - 0.00 in0.0 mm 0.00 in0.0 mm
08:15 AM 53.9°F12.2°C 49.8°F9.9°C 86% 3.5 mph NE5.6 kmh NE 4.6 mph7.4 kmh 30.25 in1024.4 mb - 0.00 in0.0 mm 0.00 in0.0 mm
08:30 AM 55.1°F12.8°C 50.3°F10.2°C 84% 4.6 mph NE7.4 kmh NE 4.6 mph7.4 kmh 30.25 in1024.4 mb - 0.00 in0.0 mm 0.00 in0.0 mm
08:45 AM 56.9°F13.8°C 51.1°F10.6°C 81% 3.5 mph NNE5.6 kmh NNE 6.9 mph11.1 kmh 30.25 in1024.4 mb - 0.00 in0.0 mm 0.00 in0.0 mm
09:00 AM 58.2°F14.6°C 51.7°F10.9°C 79% 5.8 mph NE9.3 kmh NE 9.2 mph14.8 kmh 30.26 in1024.7 mb - 0.00 in0.0 mm 0.00 in0.0 mm
09:15 AM 59.5°F15.3°C 52.3°F11.3°C 77% 4.6 mph E7.4 kmh E 9.2 mph14.8 kmh 30.26 in1024.7 mb - 0.00 in0.0 mm 0.00 in0.0 mm
09:30 AM 60.7°F15.9°C 52.7°F11.5°C 75% 4.6 mph NE7.4 kmh NE 9.2 mph14.8 kmh 30.27 in1025.1 mb - 0.00 in0.0 mm 0.00 in0.0 mm
09:45 AM 62.0°F16.7°C 53.2°F11.8°C 73% 6.9 mph ENE11.1 kmh ENE 12.7 mph20.4 kmh 30.27 in1025.1 mb - 0.00 in0.0 mm 0.00 in0.0 mm
10:00 AM 62.6°F17.0°C 53.4°F11.9°C 72% 6.9 mph NNE11.1 kmh NNE 11.5 mph18.5 kmh 30.28 in1025.4 mb - 0.00 in0.0 mm 0.00 in0.0 mm
10:15 AM 64.3°F17.9°C 55.1°F12.8°C 72% 5.8 mph NE9.3 kmh NE 10.4 mph16.7 kmh 30.28 in1025.4 mb - 0.00 in0.0 mm 0.00 in0.0 mm
10:30 AM 65.1°F18.4°C 55.5°F13.1°C 71% 4.6 mph NE7.4 kmh NE 8.1 mph13.0 kmh 30.28 in1025.4 mb - 0.00 in0.0 mm 0.00 in0.0 mm
10:45 AM 66.0°F18.9°C 56.3°F13.5°C 71% 6.9 mph N11.1 kmh N 11.5 mph18.5 kmh 30.28 in1025.4 mb - 0.00 in0.0 mm 0.00 in0.0 mm
11:00 AM 66.4°F19.1°C 56.4°F13.6°C 70% 8.1 mph NE13.0 kmh NE 13.8 mph22.2 kmh 30.29 in1025.7 mb - 0.00 in0.0 mm 0.00 in0.0 mm
11:15 AM 67.6°F19.8°C 57.8°F14.3°C 71% 6.9 mph ENE11.1 kmh ENE 15.0 mph24.1 kmh 30.29 in1025.7 mb - 0.00 in0.0 mm 0.00 in0.0 mm
11:30 AM 68.6°F20.3°C 57.6°F14.2°C 68% 5.8 mph NE9.3 kmh NE 9.2 mph14.8 kmh 30.28 in1025.4 mb - 0.00 in0.0 mm 0.00 in0.0 mm
11:45 AM 69.5°F20.8°C 57.6°F14.2°C 66% 6.9 mph ENE11.1 kmh ENE 11.5 mph18.5 kmh 30.28 in1025.4 mb - 0.00 in0.0 mm 0.00 in0.0 mm
12:00 PM 69.7°F20.9°C 57.8°F14.3°C 66% 4.6 mph NE7.4 kmh NE 9.2 mph14.8 kmh 30.28 in1025.4 mb - 0.00 in0.0 mm 0.00 in0.0 mm
12:15 PM 70.5°F21.4°C 58.2°F14.6°C 65% 5.8 mph NE9.3 kmh NE 10.4 mph16.7 kmh 30.28 in1025.4 mb - 0.00 in0.0 mm 0.00 in0.0 mm
12:30 PM 69.9°F21.1°C 57.2°F14.0°C 64% 4.6 mph E7.4 kmh E 10.4 mph16.7 kmh 30.27 in1025.1 mb - 0.00 in0.0 mm 0.00 in0.0 mm
12:45 PM 71.0°F21.7°C 58.2°F14.6°C 64% 8.1 mph E13.0 kmh E 10.4 mph16.7 kmh 30.27 in1025.1 mb - 0.00 in0.0 mm 0.00 in0.0 mm
01:00 PM 70.5°F21.4°C 57.7°F14.3°C 64% 6.9 mph E11.1 kmh E 9.2 mph14.8 kmh 30.27 in1025.1 mb - 0.00 in0.0 mm 0.00 in0.0 mm
01:15 PM 71.7°F22.1°C 58.4°F14.7°C 63% 6.9 mph NE11.1 kmh NE 12.7 mph20.4 kmh 30.26 in1024.7 mb - 0.00 in0.0 mm 0.00 in0.0 mm
01:30 PM 72.4°F22.4°C 58.6°F14.8°C 62% 4.6 mph E7.4 kmh E 8.1 mph13.0 kmh 30.25 in1024.4 mb - 0.00 in0.0 mm 0.00 in0.0 mm
01:45 PM 71.2°F21.8°C 58.0°F14.4°C 63% 5.8 mph ENE9.3 kmh ENE 11.5 mph18.5 kmh 30.25 in1024.4 mb - 0.00 in0.0 mm 0.00 in0.0 mm
02:00 PM 72.3°F22.4°C 58.5°F14.7°C 62% 5.8 mph NNE9.3 kmh NNE 12.7 mph20.4 kmh 30.24 in1024.0 mb - 0.00 in0.0 mm 0.00 in0.0 mm
02:15 PM 73.1°F22.8°C 58.3°F14.6°C 60% 6.9 mph ENE11.1 kmh ENE 8.1 mph13.0 kmh 30.23 in1023.7 mb - 0.00 in0.0 mm 0.00 in0.0 mm
02:30 PM 73.4°F23.0°C 58.2°F14.6°C 59% 5.8 mph NE9.3 kmh NE 10.4 mph16.7 kmh 30.23 in1023.7 mb - 0.00 in0.0 mm 0.00 in0.0 mm
02:45 PM 73.4°F23.0°C 57.7°F14.3°C 58% 3.5 mph E5.6 kmh E 8.1 mph13.0 kmh 30.22 in1023.4 mb - 0.00 in0.0 mm 0.00 in0.0 mm
03:00 PM 73.5°F23.1°C 57.3°F14.1°C 57% 4.6 mph NE7.4 kmh NE 9.2 mph14.8 kmh 30.22 in1023.4 mb - 0.00 in0.0 mm 0.00 in0.0 mm
03:15 PM 74.5°F23.6°C 58.3°F14.6°C 57% 6.9 mph NE11.1 kmh NE 9.2 mph14.8 kmh 30.21 in1023.0 mb - 0.00 in0.0 mm 0.00 in0.0 mm
03:30 PM 73.7°F23.2°C 57.5°F14.2°C 57% 8.1 mph E13.0 kmh E 15.0 mph24.1 kmh 30.21 in1023.0 mb - 0.00 in0.0 mm 0.00 in0.0 mm
03:45 PM 74.2°F23.4°C 57.5°F14.2°C 56% 4.6 mph NE7.4 kmh NE 6.9 mph11.1 kmh 30.20 in1022.7 mb - 0.00 in0.0 mm 0.00 in0.0 mm
04:00 PM 73.8°F23.2°C 57.1°F13.9°C 56% 5.8 mph NE9.3 kmh NE 8.1 mph13.0 kmh 30.20 in1022.7 mb - 0.00 in0.0 mm 0.00 in0.0 mm
04:15 PM 73.9°F23.3°C 57.7°F14.3°C 57% 5.8 mph E9.3 kmh E 9.2 mph14.8 kmh 30.20 in1022.7 mb - 0.00 in0.0 mm 0.00 in0.0 mm
04:30 PM 73.6°F23.1°C 57.5°F14.2°C 57% 6.9 mph NNE11.1 kmh NNE 9.2 mph14.8 kmh 30.20 in1022.7 mb - 0.00 in0.0 mm 0.00 in0.0 mm
04:45 PM 73.1°F22.8°C 57.4°F14.1°C 58% 4.6 mph E7.4 kmh E 10.4 mph16.7 kmh 30.20 in1022.7 mb - 0.00 in0.0 mm 0.00 in0.0 mm
05:00 PM 73.2°F22.9°C 57.5°F14.2°C 58% 6.9 mph NNE11.1 kmh NNE 8.1 mph13.0 kmh 30.20 in1022.7 mb - 0.00 in0.0 mm 0.00 in0.0 mm
05:15 PM 72.6°F22.6°C 57.0°F13.9°C 58% 4.6 mph NE7.4 kmh NE 10.4 mph16.7 kmh 30.20 in1022.7 mb - 0.00 in0.0 mm 0.00 in0.0 mm
05:30 PM 72.3°F22.4°C 57.6°F14.2°C 60% 4.6 mph NE7.4 kmh NE 10.4 mph16.7 kmh 30.20 in1022.7 mb - 0.00 in0.0 mm 0.00 in0.0 mm
05:45 PM 72.2°F22.3°C 57.5°F14.2°C 60% 3.5 mph ENE5.6 kmh ENE 5.8 mph9.3 kmh 30.20 in1022.7 mb - 0.00 in0.0 mm 0.00 in0.0 mm
06:00 PM 71.5°F21.9°C 57.8°F14.3°C 62% 1.2 mph ENE1.9 kmh ENE 5.8 mph9.3 kmh 30.21 in1023.0 mb - 0.00 in0.0 mm 0.00 in0.0 mm
06:15 PM 70.9°F21.6°C 57.2°F14.0°C 62% 4.6 mph ENE7.4 kmh ENE 6.9 mph11.1 kmh 30.21 in1023.0 mb - 0.00 in0.0 mm 0.00 in0.0 mm
06:30 PM 70.1°F21.2°C 57.4°F14.1°C 64% Calm Calm -- 30.21 in1023.0 mb - 0.00 in0.0 mm 0.00 in0.0 mm
06:45 PM 68.8°F20.4°C 57.8°F14.3°C 68% Calm Calm 3.5 mph5.6 kmh 30.21 in1023.0 mb - 0.00 in0.0 mm 0.00 in0.0 mm
07:00 PM 67.5°F19.7°C 57.4°F14.1°C 70% Calm Calm -- 30.21 in1023.0 mb - 0.00 in0.0 mm 0.00 in0.0 mm
07:15 PM 66.0°F18.9°C 57.4°F14.1°C 74% Calm Calm -- 30.21 in1023.0 mb - 0.00 in0.0 mm 0.00 in0.0 mm
07:30 PM 64.4°F18.0°C 57.4°F14.1°C 78% Calm Calm -- 30.22 in1023.4 mb - 0.00 in0.0 mm 0.00 in0.0 mm
07:45 PM 62.2°F16.8°C 57.0°F13.9°C 83% Calm Calm -- 30.22 in1023.4 mb - 0.00 in0.0 mm 0.00 in0.0 mm
08:00 PM 61.2°F16.2°C 57.0°F13.9°C 86% Calm Calm -- 30.22 in1023.4 mb - 0.00 in0.0 mm 0.00 in0.0 mm
08:15 PM 60.2°F15.7°C 56.3°F13.5°C 87% Calm Calm -- 30.23 in1023.7 mb - 0.00 in0.0 mm 0.00 in0.0 mm
08:30 PM 59.6°F15.3°C 56.0°F13.3°C 88% Calm Calm -- 30.23 in1023.7 mb - 0.00 in0.0 mm 0.00 in0.0 mm
08:45 PM 59.1°F15.1°C 56.2°F13.4°C 90% Calm Calm -- 30.24 in1024.0 mb - 0.00 in0.0 mm 0.00 in0.0 mm
09:00 PM 58.7°F14.8°C 56.1°F13.4°C 91% Calm Calm -- 30.24 in1024.0 mb - 0.00 in0.0 mm 0.00 in0.0 mm
09:15 PM 58.6°F14.8°C 56.0°F13.3°C 91% Calm Calm -- 30.25 in1024.4 mb - 0.00 in0.0 mm 0.00 in0.0 mm
09:30 PM 58.2°F14.6°C 55.9°F13.3°C 92% Calm Calm -- 30.25 in1024.4 mb - 0.00 in0.0 mm 0.00 in0.0 mm
09:45 PM 57.9°F14.4°C 55.9°F13.3°C 93% Calm Calm -- 30.25 in1024.4 mb - 0.00 in0.0 mm 0.00 in0.0 mm
10:00 PM 57.6°F14.2°C 55.6°F13.1°C 93% Calm Calm -- 30.25 in1024.4 mb - 0.00 in0.0 mm 0.00 in0.0 mm
10:15 PM 57.4°F14.1°C 55.4°F13.0°C 93% Calm Calm -- 30.25 in1024.4 mb - 0.00 in0.0 mm 0.00 in0.0 mm
10:30 PM 57.9°F14.4°C 55.9°F13.3°C 93% Calm Calm -- 30.25 in1024.4 mb - 0.00 in0.0 mm 0.00 in0.0 mm
10:45 PM 59.6°F15.3°C 56.4°F13.6°C 89% Calm Calm -- 30.25 in1024.4 mb - 0.00 in0.0 mm 0.00 in0.0 mm
11:00 PM 60.0°F15.6°C 56.4°F13.6°C 88% Calm Calm -- 30.26 in1024.7 mb - 0.00 in0.0 mm 0.00 in0.0 mm
11:15 PM 60.0°F15.6°C 56.4°F13.6°C 88% Calm Calm -- 30.26 in1024.7 mb - 0.00 in0.0 mm 0.00 in0.0 mm
11:30 PM 60.2°F15.7°C 56.9°F13.8°C 89% Calm Calm -- 30.26 in1024.7 mb - 0.00 in0.0 mm 0.00 in0.0 mm
11:45 PM 60.1°F15.6°C 56.8°F13.8°C 89% Calm Calm -- 30.26 in1024.7 mb - 0.00 in0.0 mm 0.00 in0.0 mm